createdAt,value
2023-02-05T00:01:48.024Z,102364.13
2023-02-05T00:06:50.806Z,102364.16
2023-02-05T00:11:53.554Z,102371.38
2023-02-05T00:16:57.713Z,102378.44
2023-02-05T00:27:18.544Z,102369.53
2023-02-05T00:32:22.700Z,102366.75
2023-02-05T00:37:25.823Z,102373.13
2023-02-05T00:42:29.208Z,102378.69
2023-02-05T00:47:33.347Z,102379.44
2023-02-05T00:52:36.179Z,102375.84
2023-02-05T00:57:38.986Z,102378.50
2023-02-05T01:02:43.275Z,102375.84
2023-02-05T01:07:46.209Z,102384.78
2023-02-05T01:12:49.898Z,102377.41
2023-02-05T01:17:54.230Z,102370.16
2023-02-05T01:22:57.496Z,102364.84
2023-02-05T01:28:00.755Z,102345.97
2023-02-05T01:33:05.473Z,102352.13
2023-02-05T01:38:08.237Z,102336.03
2023-02-05T01:43:14.373Z,102313.50
2023-02-05T01:48:21.488Z,102308.84
2023-02-05T01:53:27.014Z,102294.34
2023-02-05T01:58:33.585Z,102273.88
2023-02-05T02:03:40.426Z,102263.81
2023-02-05T02:08:43.341Z,102262.06
2023-02-05T02:13:48.480Z,102251.13
2023-02-05T02:18:54.465Z,102258.28
2023-02-05T02:24:22.921Z,102249.25
2023-02-05T02:29:36.755Z,102243.91
2023-02-05T02:34:46.247Z,102242.09
2023-02-05T02:39:57.846Z,102247.38
2023-02-05T02:45:05.609Z,102232.44
2023-02-05T02:50:14.234Z,102217.78
2023-02-05T02:55:20.638Z,102223.16
2023-02-05T03:00:29.563Z,102224.19
2023-02-05T03:05:35.393Z,102229.47
2023-02-05T03:10:44.611Z,102224.94
2023-02-05T03:15:51.824Z,102232.13
2023-02-05T03:21:02.387Z,102230.41
2023-02-05T03:26:05.591Z,102207.06
2023-02-05T03:31:24.300Z,102215.97
2023-02-05T03:36:33.772Z,102210.50
2023-02-05T03:41:59.063Z,102222.19
2023-02-05T03:47:19.374Z,102208.72
2023-02-05T03:52:28.427Z,102194.47
2023-02-05T03:57:37.141Z,102195.44
2023-02-05T04:02:41.744Z,102182.13
2023-02-05T04:07:47.329Z,102188.56
2023-02-05T04:12:50.182Z,102204.16
2023-02-05T04:17:57.798Z,102202.63
2023-02-05T04:23:02.634Z,102201.06
2023-02-05T04:28:08.305Z,102200.38
2023-02-05T04:33:13.347Z,102216.84
2023-02-05T04:38:16.623Z,102224.25
2023-02-05T04:43:19.760Z,102231.72
2023-02-05T04:48:23.960Z,102216.59
2023-02-05T04:53:27.190Z,102221.38
2023-02-05T04:58:29.987Z,102231.50
2023-02-05T05:03:34.518Z,102237.19
2023-02-05T05:08:37.715Z,102243.66
2023-02-05T05:13:40.645Z,102241.28
2023-02-05T05:18:44.829Z,102232.59
2023-02-05T05:23:47.646Z,102228.44
2023-02-05T05:28:54.309Z,102229.69
2023-02-05T05:33:58.556Z,102230.03
2023-02-05T05:39:21.864Z,102231.53
2023-02-05T05:44:24.619Z,102237.25
2023-02-05T05:49:29.476Z,102243.75
2023-02-05T05:54:32.414Z,102238.56
2023-02-05T05:59:35.328Z,102245.81
2023-02-05T06:04:39.507Z,102232.41
2023-02-05T06:09:42.373Z,102230.75
2023-02-05T06:14:45.239Z,102226.38
2023-02-05T06:19:49.330Z,102219.34
2023-02-05T06:24:52.094Z,102214.19
2023-02-05T06:29:54.897Z,102216.13
2023-02-05T06:34:59.052Z,102209.09
2023-02-05T06:40:01.870Z,102210.94
2023-02-05T06:45:05.082Z,102216.41
2023-02-05T06:50:10.070Z,102212.03
2023-02-05T06:55:12.914Z,102207.59
2023-02-05T07:00:16.844Z,102222.00
2023-02-05T07:05:21.097Z,102208.72
2023-02-05T07:10:23.930Z,102223.25
2023-02-05T07:15:27.025Z,102210.75
2023-02-05T07:20:31.331Z,102216.25
2023-02-05T07:25:37.734Z,102216.28
2023-02-05T07:30:40.509Z,102223.63
2023-02-05T07:35:44.732Z,102208.41
2023-02-05T07:40:47.584Z,102203.06
2023-02-05T07:45:57.728Z,102213.88
2023-02-05T07:51:02.316Z,102202.31
2023-02-05T07:56:05.869Z,102196.09
2023-02-05T08:01:09.529Z,102196.16
2023-02-05T08:06:16.970Z,102181.75
2023-02-05T08:11:20.643Z,102168.31
2023-02-05T08:16:23.460Z,102178.91
2023-02-05T08:21:27.582Z,102180.06
2023-02-05T08:26:30.322Z,102155.31
2023-02-05T08:31:33.383Z,102161.03
2023-02-05T08:36:37.550Z,102155.88
2023-02-05T08:41:40.411Z,102142.72
2023-02-05T08:46:49.903Z,102144.88
2023-02-05T08:51:54.955Z,102141.72
2023-02-05T08:56:57.816Z,102139.69
2023-02-05T09:02:00.700Z,102130.63
2023-02-05T09:07:04.890Z,102115.16
2023-02-05T09:12:08.108Z,102103.28
2023-02-05T09:17:14.244Z,102109.28
2023-02-05T09:22:18.492Z,102118.13
2023-02-05T09:27:21.474Z,102106.38
2023-02-05T09:32:24.339Z,102095.34
2023-02-05T09:37:28.429Z,102093.44
2023-02-05T09:42:39.694Z,102093.22
2023-02-05T09:47:51.335Z,102094.06
2023-02-05T09:53:01.106Z,102085.81
2023-02-05T09:58:09.546Z,102088.41
2023-02-05T10:03:22.866Z,102079.31
2023-02-05T10:08:37.441Z,102081.81
2023-02-05T10:13:44.204Z,102086.25
2023-02-05T10:19:00.552Z,102076.31
2023-02-05T10:24:22.369Z,102076.16
2023-02-05T10:29:37.766Z,102077.91
2023-02-05T10:34:53.659Z,102082.31
2023-02-05T10:39:59.015Z,102088.50
2023-02-05T10:45:07.765Z,102073.16
2023-02-05T10:50:19.455Z,102070.31
2023-02-05T10:55:23.736Z,102080.91
2023-02-05T11:00:26.572Z,102071.88
2023-02-05T11:05:37.040Z,102047.53
2023-02-05T11:10:41.200Z,102037.66
2023-02-05T11:15:56.405Z,102032.19
2023-02-05T11:21:01.815Z,102026.81
2023-02-05T11:26:11.783Z,102018.66
2023-02-05T11:31:25.310Z,102020.38
2023-02-05T11:36:28.188Z,102021.22
2023-02-05T11:41:48.032Z,102009.47
2023-02-05T11:46:56.774Z,102009.41
2023-02-05T11:52:01.626Z,102009.34
2023-02-05T11:57:27.654Z,101994.84
2023-02-05T12:02:33.931Z,101994.78
2023-02-05T12:07:41.219Z,102001.91
2023-02-05T12:12:58.335Z,102007.25
2023-02-05T12:18:15.399Z,101998.22
2023-02-05T12:23:39.358Z,102002.66
2023-02-05T12:28:55.316Z,101994.50
2023-02-05T12:34:13.166Z,101993.59
2023-02-05T12:39:30.793Z,102003.44
2023-02-05T12:44:47.408Z,102001.56
2023-02-05T12:50:12.384Z,102014.97
2023-02-05T13:00:31.639Z,101999.53
2023-02-05T13:05:38.130Z,102002.06
2023-02-05T13:10:50.280Z,101992.97
2023-02-05T13:16:02.448Z,101991.06
2023-02-05T13:21:26.397Z,101987.50
2023-02-05T13:26:51.144Z,102003.59
2023-02-05T13:32:04.332Z,102011.78
2023-02-05T13:37:31.666Z,102012.66
2023-02-05T13:43:19.190Z,102012.56
2023-02-05T13:49:11.768Z,102017.91
2023-02-05T13:54:59.208Z,102013.31
2023-02-05T14:00:03.680Z,102011.41
2023-02-05T14:05:17.723Z,102006.84
2023-02-05T14:10:30.328Z,102016.63
2023-02-05T14:15:38.992Z,102031.81
2023-02-05T14:20:45.615Z,102034.34
2023-02-05T14:26:11.634Z,102027.94
2023-02-05T14:31:49.660Z,102036.72
2023-02-05T14:36:55.955Z,102037.00
2023-02-05T14:42:00.669Z,102041.44
2023-02-05T14:47:07.014Z,102039.69
2023-02-05T14:52:26.201Z,102038.75
2023-02-05T14:57:40.164Z,102022.56
2023-02-05T15:03:23.092Z,102015.41
2023-02-05T15:08:41.884Z,102012.72
2023-02-05T15:14:24.354Z,102003.72
2023-02-05T15:19:27.576Z,102012.84
2023-02-05T15:24:36.848Z,102010.00
2023-02-05T15:29:45.791Z,102010.88
2023-02-05T15:34:53.572Z,102015.72
2023-02-05T15:40:02.128Z,102019.72
2023-02-05T15:45:18.141Z,102031.03
2023-02-05T15:50:21.101Z,102048.84
2023-02-05T15:55:27.752Z,102050.13
2023-02-05T16:00:32.925Z,102076.75
2023-02-05T16:05:37.331Z,102086.94
2023-02-05T16:10:54.238Z,102106.13
2023-02-05T16:16:02.218Z,102114.56
2023-02-05T16:21:09.271Z,102117.53
2023-02-05T16:26:21.374Z,102122.25
2023-02-05T16:31:27.105Z,102122.53
2023-02-05T16:36:33.373Z,102133.44
2023-02-05T16:41:40.939Z,102144.41
2023-02-05T16:46:44.130Z,102150.84
2023-02-05T16:51:55.699Z,102144.59
2023-02-05T16:57:04.979Z,102147.34
2023-02-05T17:02:23.181Z,102154.56
2023-02-05T17:07:26.294Z,102158.31
2023-02-05T17:12:46.733Z,102152.94
2023-02-05T17:17:51.820Z,102161.22
2023-02-05T17:23:09.185Z,102156.94
2023-02-05T17:28:17.485Z,102176.06
2023-02-05T17:33:22.517Z,102172.75
2023-02-05T17:38:25.427Z,102168.50
2023-02-05T17:43:29.558Z,102167.81
2023-02-05T17:48:32.345Z,102162.66
2023-02-05T17:53:35.204Z,102147.69
2023-02-05T17:58:39.329Z,102153.16
2023-02-05T18:03:42.407Z,102151.44
2023-02-05T18:08:45.156Z,102146.75
2023-02-05T18:13:49.354Z,102151.81
2023-02-05T18:18:52.153Z,102157.97
2023-02-05T18:23:55.054Z,102155.09
2023-02-05T18:28:59.200Z,102162.31
2023-02-05T18:34:01.923Z,102170.25
2023-02-05T18:39:05.056Z,102189.88
2023-02-05T18:44:09.711Z,102192.41
2023-02-05T18:49:12.489Z,102194.94
2023-02-05T18:54:15.241Z,102201.19
2023-02-05T18:59:21.098Z,102196.59
2023-02-05T19:04:24.840Z,102205.28
2023-02-05T19:09:28.900Z,102214.84
2023-02-05T19:14:33.043Z,102224.69
2023-02-05T19:19:35.861Z,102215.56
2023-02-05T19:24:40.344Z,102224.34
2023-02-05T19:29:44.768Z,102231.16
2023-02-05T19:34:47.568Z,102241.22
2023-02-05T19:39:50.346Z,102234.03
2023-02-05T19:44:54.606Z,102220.50
2023-02-05T19:49:57.689Z,102216.94
2023-02-05T19:55:00.445Z,102223.13
2023-02-05T20:00:05.491Z,102247.28
2023-02-05T20:05:14.775Z,102252.66
2023-02-05T20:10:17.707Z,102244.78
2023-02-05T20:15:21.927Z,102255.19
2023-02-05T20:20:33.226Z,102252.44
2023-02-05T20:25:36.783Z,102255.13
2023-02-05T20:31:00.301Z,102253.34
2023-02-05T20:36:07.158Z,102264.97
2023-02-05T20:41:13.955Z,102263.09
2023-02-05T20:46:18.342Z,102250.53
2023-02-05T20:51:23.180Z,102249.66
2023-02-05T20:56:27.469Z,102254.03
2023-02-05T21:01:33.130Z,102261.34
2023-02-05T21:06:38.536Z,102258.44
2023-02-05T21:11:41.563Z,102279.97
2023-02-05T21:16:45.741Z,102279.03
2023-02-05T21:21:49.800Z,102285.38
2023-02-05T21:26:52.611Z,102292.41
2023-02-05T21:31:56.864Z,102293.34
2023-02-05T21:36:59.657Z,102309.47
2023-02-05T21:42:02.531Z,102312.84
2023-02-05T21:47:06.705Z,102327.91
2023-02-05T21:52:09.770Z,102341.34
2023-02-05T21:57:12.535Z,102347.78
2023-02-05T22:02:16.816Z,102341.25
2023-02-05T22:07:19.577Z,102347.78
2023-02-05T22:12:22.664Z,102346.03
2023-02-05T22:17:26.908Z,102352.75
2023-02-05T22:22:29.680Z,102366.38
2023-02-05T22:27:32.701Z,102372.06
2023-02-05T22:32:36.839Z,102386.50
2023-02-05T22:37:39.586Z,102387.69
2023-02-05T22:42:42.419Z,102376.13
2023-02-05T22:47:46.529Z,102383.34
2023-02-05T22:52:49.266Z,102378.09
2023-02-05T22:57:52.059Z,102370.91
2023-02-05T23:02:57.328Z,102371.16
2023-02-05T23:08:00.371Z,102372.97
2023-02-05T23:13:03.194Z,102372.97
2023-02-05T23:18:07.391Z,102389.19
2023-02-05T23:23:10.139Z,102382.06
2023-02-05T23:28:12.934Z,102381.03
2023-02-05T23:33:17.816Z,102391.81
2023-02-05T23:38:20.544Z,102381.06
2023-02-05T23:43:24.046Z,102390.88
2023-02-05T23:48:28.834Z,102384.69
2023-02-05T23:53:31.645Z,102360.47
2023-02-05T23:58:34.388Z,102356.84
